sensor_id;sensor_type;location;lat;lon;timestamp;pressure;altitude;pressure_sealevel;temperature;humidity
15932;BME280;8065;49.520;11.284;2023-03-02T00:00:26;97758.09;;;6.09;65.07
15932;BME280;8065;49.520;11.284;2023-03-02T00:02:54;97759.69;;;6.10;64.96
15932;BME280;8065;49.520;11.284;2023-03-02T00:05:20;97759.59;;;5.96;65.83
15932;BME280;8065;49.520;11.284;2023-03-02T00:07:47;97757.31;;;6.08;65.33
15932;BME280;8065;49.520;11.284;2023-03-02T00:10:13;97757.59;;;5.83;66.30
15932;BME280;8065;49.520;11.284;2023-03-02T00:12:39;97753.31;;;5.92;66.13
15932;BME280;8065;49.520;11.284;2023-03-02T00:15:07;97752.09;;;5.50;67.74
15932;BME280;8065;49.520;11.284;2023-03-02T00:17:34;97736.75;;;5.57;67.70
15932;BME280;8065;49.520;11.284;2023-03-02T00:20:04;97741.72;;;5.88;67.01
15932;BME280;8065;49.520;11.284;2023-03-02T00:22:36;97742.59;;;5.78;67.34
15932;BME280;8065;49.520;11.284;2023-03-02T00:25:03;97747.25;;;5.34;69.85
15932;BME280;8065;49.520;11.284;2023-03-02T00:27:30;97737.31;;;5.54;68.39
15932;BME280;8065;49.520;11.284;2023-03-02T00:29:57;97740.31;;;5.43;68.72
15932;BME280;8065;49.520;11.284;2023-03-02T00:32:23;97729.03;;;5.66;68.08
15932;BME280;8065;49.520;11.284;2023-03-02T00:34:50;97724.31;;;5.63;68.54
15932;BME280;8065;49.520;11.284;2023-03-02T00:37:18;97719.94;;;5.77;67.81
15932;BME280;8065;49.520;11.284;2023-03-02T00:39:45;97706.94;;;5.86;67.31
15932;BME280;8065;49.520;11.284;2023-03-02T00:42:11;97713.09;;;5.52;68.49
15932;BME280;8065;49.520;11.284;2023-03-02T00:44:38;97719.19;;;5.48;69.20
15932;BME280;8065;49.520;11.284;2023-03-02T00:47:04;97719.13;;;5.53;68.62
15932;BME280;8065;49.520;11.284;2023-03-02T00:49:31;97717.91;;;5.69;68.15
15932;BME280;8065;49.520;11.284;2023-03-02T00:51:57;97710.63;;;5.85;67.53
15932;BME280;8065;49.520;11.284;2023-03-02T00:54:25;97715.00;;;5.71;67.88
15932;BME280;8065;49.520;11.284;2023-03-02T00:56:52;97713.78;;;5.87;67.67
15932;BME280;8065;49.520;11.284;2023-03-02T00:59:18;97712.66;;;5.69;68.29
15932;BME280;8065;49.520;11.284;2023-03-02T01:01:56;97703.16;;;5.68;68.46
15932;BME280;8065;49.520;11.284;2023-03-02T01:04:24;97688.97;;;5.88;67.28
15932;BME280;8065;49.520;11.284;2023-03-02T01:06:54;97684.31;;;5.80;67.51
15932;BME280;8065;49.520;11.284;2023-03-02T01:09:20;97682.75;;;5.79;67.75
15932;BME280;8065;49.520;11.284;2023-03-02T01:11:48;97670.84;;;5.57;68.24
15932;BME280;8065;49.520;11.284;2023-03-02T01:14:15;97681.50;;;5.47;69.31
15932;BME280;8065;49.520;11.284;2023-03-02T01:16:42;97670.69;;;5.73;68.43
15932;BME280;8065;49.520;11.284;2023-03-02T01:19:08;97673.59;;;5.71;68.10
15932;BME280;8065;49.520;11.284;2023-03-02T01:21:35;97677.66;;;5.64;68.39
15932;BME280;8065;49.520;11.284;2023-03-02T01:24:02;97663.50;;;5.78;67.40
15932;BME280;8065;49.520;11.284;2023-03-02T01:26:28;97658.06;;;5.70;68.27
15932;BME280;8065;49.520;11.284;2023-03-02T01:28:56;97658.47;;;5.82;67.31
15932;BME280;8065;49.520;11.284;2023-03-02T01:31:24;97656.00;;;5.67;67.66
15932;BME280;8065;49.520;11.284;2023-03-02T01:33:51;97658.13;;;5.65;68.17
15932;BME280;8065;49.520;11.284;2023-03-02T01:36:18;97642.50;;;5.49;68.66
15932;BME280;8065;49.520;11.284;2023-03-02T01:38:45;97643.94;;;5.60;68.63
15932;BME280;8065;49.520;11.284;2023-03-02T01:41:12;97640.91;;;5.48;67.92
15932;BME280;8065;49.520;11.284;2023-03-02T01:43:38;97647.03;;;5.68;68.06
15932;BME280;8065;49.520;11.284;2023-03-02T01:46:09;97644.34;;;5.73;67.71
15932;BME280;8065;49.520;11.284;2023-03-02T01:48:41;97647.59;;;5.65;68.21
15932;BME280;8065;49.520;11.284;2023-03-02T01:51:11;97639.34;;;5.71;67.78
15932;BME280;8065;49.520;11.284;2023-03-02T01:53:40;97641.53;;;5.64;68.25
15932;BME280;8065;49.520;11.284;2023-03-02T01:56:16;97644.28;;;5.54;68.60
15932;BME280;8065;49.520;11.284;2023-03-02T01:58:45;97636.03;;;5.60;67.78
15932;BME280;8065;49.520;11.284;2023-03-02T02:01:14;97632.72;;;5.74;67.78
15932;BME280;8065;49.520;11.284;2023-03-02T02:03:42;97622.34;;;5.58;68.29
15932;BME280;8065;49.520;11.284;2023-03-02T02:06:12;97613.47;;;5.73;67.74
15932;BME280;8065;49.520;11.284;2023-03-02T02:08:43;97623.25;;;5.49;68.01
15932;BME280;8065;49.520;11.284;2023-03-02T02:11:10;97620.44;;;5.64;68.29
15932;BME280;8065;49.520;11.284;2023-03-02T02:13:38;97630.44;;;5.67;67.81
15932;BME280;8065;49.520;11.284;2023-03-02T02:16:05;97619.44;;;5.36;68.78
15932;BME280;8065;49.520;11.284;2023-03-02T02:18:35;97619.31;;;5.70;67.52
15932;BME280;8065;49.520;11.284;2023-03-02T02:21:03;97625.16;;;5.67;68.01
15932;BME280;8065;49.520;11.284;2023-03-02T02:23:35;97615.44;;;5.63;68.38
15932;BME280;8065;49.520;11.284;2023-03-02T02:26:10;97621.56;;;5.58;67.97
15932;BME280;8065;49.520;11.284;2023-03-02T02:28:46;97616.75;;;5.65;67.70
15932;BME280;8065;49.520;11.284;2023-03-02T02:31:17;97616.47;;;5.67;68.01
15932;BME280;8065;49.520;11.284;2023-03-02T02:33:50;97616.56;;;5.56;67.58
15932;BME280;8065;49.520;11.284;2023-03-02T02:36:20;97610.34;;;5.71;67.54
15932;BME280;8065;49.520;11.284;2023-03-02T02:38:51;97620.31;;;5.74;67.58
15932;BME280;8065;49.520;11.284;2023-03-02T02:41:23;97617.69;;;5.50;68.34
15932;BME280;8065;49.520;11.284;2023-03-02T02:43:51;97613.00;;;5.47;68.60
15932;BME280;8065;49.520;11.284;2023-03-02T02:46:19;97616.31;;;5.58;67.76
15932;BME280;8065;49.520;11.284;2023-03-02T02:48:45;97611.16;;;5.48;68.36
15932;BME280;8065;49.520;11.284;2023-03-02T02:51:17;97616.13;;;5.49;68.20
15932;BME280;8065;49.520;11.284;2023-03-02T02:53:51;97617.75;;;5.69;67.25
15932;BME280;8065;49.520;11.284;2023-03-02T02:56:25;97621.44;;;5.68;67.54
15932;BME280;8065;49.520;11.284;2023-03-02T02:58:52;97617.75;;;5.69;67.09
15932;BME280;8065;49.520;11.284;2023-03-02T03:01:22;97619.88;;;5.67;67.63
15932;BME280;8065;49.520;11.284;2023-03-02T03:03:51;97623.38;;;5.39;68.20
15932;BME280;8065;49.520;11.284;2023-03-02T03:06:22;97625.84;;;5.54;68.22
15932;BME280;8065;49.520;11.284;2023-03-02T03:08:54;97619.38;;;5.41;68.31
15932;BME280;8065;49.520;11.284;2023-03-02T03:11:24;97633.69;;;5.11;69.43
15932;BME280;8065;49.520;11.284;2023-03-02T03:13:54;97628.84;;;5.42;68.54
15932;BME280;8065;49.520;11.284;2023-03-02T03:16:23;97636.72;;;5.47;68.02
15932;BME280;8065;49.520;11.284;2023-03-02T03:18:51;97631.31;;;5.34;68.86
15932;BME280;8065;49.520;11.284;2023-03-02T03:21:18;97631.44;;;5.47;67.98
15932;BME280;8065;49.520;11.284;2023-03-02T03:23:45;97628.84;;;5.42;68.42
15932;BME280;8065;49.520;11.284;2023-03-02T03:26:13;97628.75;;;5.52;67.75
15932;BME280;8065;49.520;11.284;2023-03-02T03:28:41;97635.47;;;5.64;67.67
15932;BME280;8065;49.520;11.284;2023-03-02T03:31:07;97630.25;;;5.58;67.59
15932;BME280;8065;49.520;11.284;2023-03-02T03:33:34;97627.34;;;5.36;68.03
15932;BME280;8065;49.520;11.284;2023-03-02T03:36:00;97630.66;;;5.47;67.90
15932;BME280;8065;49.520;11.284;2023-03-02T03:38:28;97635.34;;;5.26;68.97
15932;BME280;8065;49.520;11.284;2023-03-02T03:40:55;97628.31;;;5.45;68.45
15932;BME280;8065;49.520;11.284;2023-03-02T03:43:21;97631.00;;;5.40;68.14
15932;BME280;8065;49.520;11.284;2023-03-02T03:45:49;97629.75;;;5.56;68.05
15932;BME280;8065;49.520;11.284;2023-03-02T03:48:16;97635.03;;;5.56;67.81
15932;BME280;8065;49.520;11.284;2023-03-02T03:50:43;97629.41;;;5.39;68.48
15932;BME280;8065;49.520;11.284;2023-03-02T03:53:09;97631.88;;;5.54;68.32
15932;BME280;8065;49.520;11.284;2023-03-02T03:55:36;97623.03;;;5.45;68.48
15932;BME280;8065;49.520;11.284;2023-03-02T03:58:02;97634.19;;;5.37;68.49
15932;BME280;8065;49.520;11.284;2023-03-02T04:00:29;97635.84;;;5.04;69.68
15932;BME280;8065;49.520;11.284;2023-03-02T04:02:57;97628.69;;;5.10;69.19
15932;BME280;8065;49.520;11.284;2023-03-02T04:05:23;97628.19;;;5.32;69.00
15932;BME280;8065;49.520;11.284;2023-03-02T04:07:50;97631.69;;;5.22;69.37
15932;BME280;8065;49.520;11.284;2023-03-02T04:10:17;97621.22;;;5.41;68.35
15932;BME280;8065;49.520;11.284;2023-03-02T04:12:44;97622.13;;;5.31;68.59
15932;BME280;8065;49.520;11.284;2023-03-02T04:15:13;97619.03;;;5.24;68.26
15932;BME280;8065;49.520;11.284;2023-03-02T04:17:40;97618.81;;;5.20;69.25
15932;BME280;8065;49.520;11.284;2023-03-02T04:20:12;97621.03;;;5.13;68.83
15932;BME280;8065;49.520;11.284;2023-03-02T04:22:42;97621.56;;;5.34;68.01
15932;BME280;8065;49.520;11.284;2023-03-02T04:25:08;97621.41;;;5.25;68.37
15932;BME280;8065;49.520;11.284;2023-03-02T04:27:35;97622.56;;;5.38;67.72
15932;BME280;8065;49.520;11.284;2023-03-02T04:30:02;97618.31;;;5.42;67.77
15932;BME280;8065;49.520;11.284;2023-03-02T04:32:29;97616.53;;;5.38;68.00
15932;BME280;8065;49.520;11.284;2023-03-02T04:34:56;97623.81;;;5.22;68.53
15932;BME280;8065;49.520;11.284;2023-03-02T04:37:24;97622.22;;;4.97;69.16
15932;BME280;8065;49.520;11.284;2023-03-02T04:39:50;97624.25;;;5.05;69.11
15932;BME280;8065;49.520;11.284;2023-03-02T04:42:17;97623.00;;;4.98;69.26
15932;BME280;8065;49.520;11.284;2023-03-02T04:44:44;97619.22;;;5.09;69.18
15932;BME280;8065;49.520;11.284;2023-03-02T04:47:10;97616.13;;;5.02;69.24
15932;BME280;8065;49.520;11.284;2023-03-02T04:49:37;97610.03;;;5.06;69.92
15932;BME280;8065;49.520;11.284;2023-03-02T04:52:04;97613.25;;;4.98;69.72
15932;BME280;8065;49.520;11.284;2023-03-02T04:54:32;97618.63;;;5.17;68.75
15932;BME280;8065;49.520;11.284;2023-03-02T04:56:58;97628.00;;;5.23;69.22
15932;BME280;8065;49.520;11.284;2023-03-02T04:59:26;97620.88;;;5.23;68.71
15932;BME280;8065;49.520;11.284;2023-03-02T05:01:54;97608.59;;;5.19;69.30
15932;BME280;8065;49.520;11.284;2023-03-02T05:04:21;97615.06;;;5.03;69.83
15932;BME280;8065;49.520;11.284;2023-03-02T05:06:48;97623.94;;;5.12;69.84
15932;BME280;8065;49.520;11.284;2023-03-02T05:09:15;97611.38;;;5.04;70.02
15932;BME280;8065;49.520;11.284;2023-03-02T05:11:43;97619.22;;;5.09;69.86
15932;BME280;8065;49.520;11.284;2023-03-02T05:14:11;97615.53;;;5.10;69.28
15932;BME280;8065;49.520;11.284;2023-03-02T05:16:39;97615.47;;;5.15;69.39
15932;BME280;8065;49.520;11.284;2023-03-02T05:19:08;97614.19;;;5.12;69.70
15932;BME280;8065;49.520;11.284;2023-03-02T05:21:35;97624.16;;;5.15;69.98
15932;BME280;8065;49.520;11.284;2023-03-02T05:24:02;97618.66;;;5.12;69.59
15932;BME280;8065;49.520;11.284;2023-03-02T05:26:29;97617.09;;;5.11;69.81
15932;BME280;8065;49.520;11.284;2023-03-02T05:28:57;97606.44;;;5.21;68.96
15932;BME280;8065;49.520;11.284;2023-03-02T05:31:28;97611.13;;;5.24;69.56
15932;BME280;8065;49.520;11.284;2023-03-02T05:33:55;97604.88;;;5.20;70.14
15932;BME280;8065;49.520;11.284;2023-03-02T05:36:21;97616.03;;;5.12;69.74
15932;BME280;8065;49.520;11.284;2023-03-02T05:38:48;97612.84;;;5.15;69.54
15932;BME280;8065;49.520;11.284;2023-03-02T05:41:14;97613.63;;;5.15;69.94
15932;BME280;8065;49.520;11.284;2023-03-02T05:43:41;97614.66;;;4.90;70.63
15932;BME280;8065;49.520;11.284;2023-03-02T05:46:09;97616.16;;;4.97;70.65
15932;BME280;8065;49.520;11.284;2023-03-02T05:48:35;97621.81;;;5.14;69.71
15932;BME280;8065;49.520;11.284;2023-03-02T05:51:02;97624.63;;;4.93;71.01
15932;BME280;8065;49.520;11.284;2023-03-02T05:53:29;97621.56;;;5.10;69.81
15932;BME280;8065;49.520;11.284;2023-03-02T05:55:56;97630.88;;;5.03;70.30
15932;BME280;8065;49.520;11.284;2023-03-02T05:58:22;97627.69;;;5.06;70.48
15932;BME280;8065;49.520;11.284;2023-03-02T06:00:49;97634.03;;;5.00;71.18
15932;BME280;8065;49.520;11.284;2023-03-02T06:03:17;97633.53;;;4.98;70.87
15932;BME280;8065;49.520;11.284;2023-03-02T06:05:43;97638.47;;;5.04;70.66
15932;BME280;8065;49.520;11.284;2023-03-02T06:08:15;97642.00;;;4.94;71.23
15932;BME280;8065;49.520;11.284;2023-03-02T06:10:41;97643.97;;;4.79;71.87
15932;BME280;8065;49.520;11.284;2023-03-02T06:13:08;97637.25;;;4.97;70.87
15932;BME280;8065;49.520;11.284;2023-03-02T06:15:34;97645.66;;;4.99;71.18
15932;BME280;8065;49.520;11.284;2023-03-02T06:18:01;97652.13;;;4.77;71.27
15932;BME280;8065;49.520;11.284;2023-03-02T06:20:29;97648.91;;;4.85;70.73
15932;BME280;8065;49.520;11.284;2023-03-02T06:22:56;97651.59;;;5.09;70.89
15932;BME280;8065;49.520;11.284;2023-03-02T06:25:23;97661.47;;;5.22;70.36
15932;BME280;8065;49.520;11.284;2023-03-02T06:27:50;97656.03;;;5.14;70.39
15932;BME280;8065;49.520;11.284;2023-03-02T06:30:20;97652.94;;;5.07;70.32
15932;BME280;8065;49.520;11.284;2023-03-02T06:32:46;97655.41;;;5.22;70.46
15932;BME280;8065;49.520;11.284;2023-03-02T06:35:13;97654.69;;;5.40;69.85
15932;BME280;8065;49.520;11.284;2023-03-02T06:37:42;97656.31;;;5.36;69.78
15932;BME280;8065;49.520;11.284;2023-03-02T06:40:10;97650.28;;;5.36;69.87
15932;BME280;8065;49.520;11.284;2023-03-02T06:42:38;97655.75;;;5.39;69.47
15932;BME280;8065;49.520;11.284;2023-03-02T06:45:07;97656.00;;;5.43;69.51
15932;BME280;8065;49.520;11.284;2023-03-02T06:47:33;97652.91;;;5.36;69.95
15932;BME280;8065;49.520;11.284;2023-03-02T06:50:00;97653.06;;;5.44;69.43
15932;BME280;8065;49.520;11.284;2023-03-02T06:52:26;97661.72;;;5.50;69.27
15932;BME280;8065;49.520;11.284;2023-03-02T06:54:55;97652.53;;;5.71;68.69
15932;BME280;8065;49.520;11.284;2023-03-02T06:57:21;97652.53;;;5.71;68.53
15932;BME280;8065;49.520;11.284;2023-03-02T06:59:48;97660.72;;;5.94;68.54
15932;BME280;8065;49.520;11.284;2023-03-02T07:02:14;97651.81;;;6.08;68.24
15932;BME280;8065;49.520;11.284;2023-03-02T07:04:41;97659.44;;;6.10;68.06
15932;BME280;8065;49.520;11.284;2023-03-02T07:07:07;97663.53;;;6.02;67.80
15932;BME280;8065;49.520;11.284;2023-03-02T07:09:34;97659.81;;;6.03;67.89
15932;BME280;8065;49.520;11.284;2023-03-02T07:12:02;97655.25;;;6.28;67.50
15932;BME280;8065;49.520;11.284;2023-03-02T07:14:29;97658.03;;;6.36;67.03
15932;BME280;8065;49.520;11.284;2023-03-02T07:16:55;97656.16;;;6.55;66.54
15932;BME280;8065;49.520;11.284;2023-03-02T07:19:22;97649.97;;;6.28;66.78
15932;BME280;8065;49.520;11.284;2023-03-02T07:21:48;97656.38;;;6.59;66.06
15932;BME280;8065;49.520;11.284;2023-03-02T07:24:15;97655.09;;;6.75;66.41
15932;BME280;8065;49.520;11.284;2023-03-02T07:26:41;97648.31;;;6.69;65.99
15932;BME280;8065;49.520;11.284;2023-03-02T07:29:09;97651.59;;;6.61;66.32
15932;BME280;8065;49.520;11.284;2023-03-02T07:31:36;97653.81;;;7.19;65.54
15932;BME280;8065;49.520;11.284;2023-03-02T07:34:02;97648.94;;;7.26;64.42
15932;BME280;8065;49.520;11.284;2023-03-02T07:36:29;97640.81;;;7.36;64.20
15932;BME280;8065;49.520;11.284;2023-03-02T07:38:56;97644.84;;;7.47;64.41
15932;BME280;8065;49.520;11.284;2023-03-02T07:41:22;97638.06;;;7.41;64.22
15932;BME280;8065;49.520;11.284;2023-03-02T07:43:49;97641.31;;;7.38;63.98
15932;BME280;8065;49.520;11.284;2023-03-02T07:46:17;97640.22;;;7.80;63.27
15932;BME280;8065;49.520;11.284;2023-03-02T07:48:43;97636.75;;;8.07;62.90
15932;BME280;8065;49.520;11.284;2023-03-02T07:51:10;97639.75;;;8.28;62.21
15932;BME280;8065;49.520;11.284;2023-03-02T07:53:36;97648.81;;;8.00;62.22
15932;BME280;8065;49.520;11.284;2023-03-02T07:56:07;97641.41;;;8.38;60.82
15932;BME280;8065;49.520;11.284;2023-03-02T07:58:34;97641.16;;;8.62;60.47
15932;BME280;8065;49.520;11.284;2023-03-02T08:01:01;97646.78;;;8.46;61.20
15932;BME280;8065;49.520;11.284;2023-03-02T08:03:28;97642.72;;;8.63;61.00
15932;BME280;8065;49.520;11.284;2023-03-02T08:05:55;97636.47;;;8.90;60.21
15932;BME280;8065;49.520;11.284;2023-03-02T08:08:24;97641.44;;;9.13;59.62
15932;BME280;8065;49.520;11.284;2023-03-02T08:10:50;97645.72;;;9.23;59.41
15932;BME280;8065;49.520;11.284;2023-03-02T08:13:17;97646.75;;;9.13;59.29
15932;BME280;8065;49.520;11.284;2023-03-02T08:15:43;97646.59;;;9.41;58.05
15932;BME280;8065;49.520;11.284;2023-03-02T08:18:10;97641.69;;;9.74;57.98
15932;BME280;8065;49.520;11.284;2023-03-02T08:20:38;97652.28;;;9.65;58.51
15932;BME280;8065;49.520;11.284;2023-03-02T08:23:04;97652.25;;;10.13;57.33
15932;BME280;8065;49.520;11.284;2023-03-02T08:25:31;97648.25;;;10.25;56.92
15932;BME280;8065;49.520;11.284;2023-03-02T08:27:57;97652.50;;;9.86;57.12
15932;BME280;8065;49.520;11.284;2023-03-02T08:30:24;97661.22;;;9.78;56.84
15932;BME280;8065;49.520;11.284;2023-03-02T08:32:50;97649.41;;;10.01;57.09
15932;BME280;8065;49.520;11.284;2023-03-02T08:35:17;97646.47;;;10.11;56.85
15932;BME280;8065;49.520;11.284;2023-03-02T08:37:47;97639.00;;;10.57;55.83
15932;BME280;8065;49.520;11.284;2023-03-02T08:40:14;97634.47;;;10.66;55.77
15932;BME280;8065;49.520;11.284;2023-03-02T08:42:40;97629.03;;;10.28;55.62
15932;BME280;8065;49.520;11.284;2023-03-02T08:45:08;97625.25;;;10.46;55.25
15932;BME280;8065;49.520;11.284;2023-03-02T08:47:34;97624.44;;;10.89;55.22
15932;BME280;8065;49.520;11.284;2023-03-02T08:50:01;97627.25;;;11.01;55.05
15932;BME280;8065;49.520;11.284;2023-03-02T08:52:27;97624.81;;;10.27;56.08
15932;BME280;8065;49.520;11.284;2023-03-02T08:54:55;97622.59;;;10.63;55.32
15932;BME280;8065;49.520;11.284;2023-03-02T08:57:22;97611.50;;;11.63;53.79
15932;BME280;8065;49.520;11.284;2023-03-02T08:59:48;97625.50;;;11.90;52.89
15932;BME280;8065;49.520;11.284;2023-03-02T09:02:16;97621.66;;;11.70;52.71
15932;BME280;8065;49.520;11.284;2023-03-02T09:04:43;97617.31;;;12.15;52.67
15932;BME280;8065;49.520;11.284;2023-03-02T09:07:10;97618.41;;;12.56;51.63
15932;BME280;8065;49.520;11.284;2023-03-02T09:09:36;97619.72;;;13.16;51.11
15932;BME280;8065;49.520;11.284;2023-03-02T09:12:04;97620.44;;;13.37;49.93
15932;BME280;8065;49.520;11.284;2023-03-02T09:14:31;97616.00;;;13.78;49.61
15932;BME280;8065;49.520;11.284;2023-03-02T09:16:57;97616.63;;;13.99;49.16
15932;BME280;8065;49.520;11.284;2023-03-02T09:19:24;97626.53;;;13.26;49.58
15932;BME280;8065;49.520;11.284;2023-03-02T09:21:50;97617.63;;;13.95;48.92
15932;BME280;8065;49.520;11.284;2023-03-02T09:24:17;97608.53;;;14.48;48.36
15932;BME280;8065;49.520;11.284;2023-03-02T09:26:43;97612.00;;;13.84;49.08
15932;BME280;8065;49.520;11.284;2023-03-02T09:29:11;97612.94;;;14.04;48.56
15932;BME280;8065;49.520;11.284;2023-03-02T09:31:38;97619.09;;;13.31;49.57
15932;BME280;8065;49.520;11.284;2023-03-02T09:34:05;97618.19;;;13.27;50.00
15932;BME280;8065;49.520;11.284;2023-03-02T09:36:31;97616.81;;;14.19;49.38
15932;BME280;8065;49.520;11.284;2023-03-02T09:38:58;97615.44;;;14.37;48.34
15932;BME280;8065;49.520;11.284;2023-03-02T09:41:33;97610.13;;;14.93;47.49
15932;BME280;8065;49.520;11.284;2023-03-02T09:44:18;97609.72;;;14.79;47.70
15932;BME280;8065;49.520;11.284;2023-03-02T09:46:54;97613.03;;;14.88;47.46
15932;BME280;8065;49.520;11.284;2023-03-02T09:49:32;97608.59;;;15.23;46.40
15932;BME280;8065;49.520;11.284;2023-03-02T09:52:09;97612.72;;;15.05;46.39
15932;BME280;8065;49.520;11.284;2023-03-02T09:54:41;97601.97;;;15.33;46.58
15932;BME280;8065;49.520;11.284;2023-03-02T09:57:19;97602.66;;;15.30;45.88
15932;BME280;8065;49.520;11.284;2023-03-02T09:59:53;97608.06;;;15.02;46.35
15932;BME280;8065;49.520;11.284;2023-03-02T10:02:24;97606.00;;;15.11;46.16
15932;BME280;8065;49.520;11.284;2023-03-02T10:04:55;97608.84;;;14.74;46.67
15932;BME280;8065;49.520;11.284;2023-03-02T10:07:25;97603.44;;;14.71;47.79
15932;BME280;8065;49.520;11.284;2023-03-02T10:09:53;97600.19;;;15.88;46.80
15932;BME280;8065;49.520;11.284;2023-03-02T10:12:35;97600.19;;;15.88;45.90
15932;BME280;8065;49.520;11.284;2023-03-02T10:15:10;97593.66;;;15.69;46.57
15932;BME280;8065;49.520;11.284;2023-03-02T10:17:50;97594.09;;;15.56;45.94
15932;BME280;8065;49.520;11.284;2023-03-02T10:20:25;97594.56;;;14.83;46.70
15932;BME280;8065;49.520;11.284;2023-03-02T10:22:59;97593.47;;;15.15;46.89
15932;BME280;8065;49.520;11.284;2023-03-02T10:25:35;97587.31;;;15.93;45.52
15932;BME280;8065;49.520;11.284;2023-03-02T10:28:13;97587.69;;;16.88;44.74
15932;BME280;8065;49.520;11.284;2023-03-02T10:30:44;97586.63;;;16.16;44.74
15932;BME280;8065;49.520;11.284;2023-03-02T10:33:14;97584.25;;;16.68;44.17
15932;BME280;8065;49.520;11.284;2023-03-02T10:35:44;97589.38;;;16.00;45.04
15932;BME280;8065;49.520;11.284;2023-03-02T10:38:12;97584.97;;;16.46;45.02
15932;BME280;8065;49.520;11.284;2023-03-02T10:40:42;97582.59;;;17.52;44.46
15932;BME280;8065;49.520;11.284;2023-03-02T10:43:15;97581.94;;;17.09;44.36
15932;BME280;8065;49.520;11.284;2023-03-02T10:45:44;97587.00;;;17.86;43.69
15932;BME280;8065;49.520;11.284;2023-03-02T10:48:12;97575.06;;;17.61;43.22
15932;BME280;8065;49.520;11.284;2023-03-02T10:50:41;97579.16;;;16.83;44.34
15932;BME280;8065;49.520;11.284;2023-03-02T10:53:15;97573.19;;;17.38;43.64
15932;BME280;8065;49.520;11.284;2023-03-02T10:55:44;97571.34;;;17.43;43.88
15932;BME280;8065;49.520;11.284;2023-03-02T10:58:20;97574.06;;;17.69;43.91
15932;BME280;8065;49.520;11.284;2023-03-02T11:00:59;97571.03;;;17.48;43.49
15932;BME280;8065;49.520;11.284;2023-03-02T11:03:26;97568.56;;;17.62;43.50
15932;BME280;8065;49.520;11.284;2023-03-02T11:05:54;97573.81;;;17.06;43.70
15932;BME280;8065;49.520;11.284;2023-03-02T11:08:23;97572.38;;;16.69;44.32
15932;BME280;8065;49.520;11.284;2023-03-02T11:10:52;97570.53;;;16.93;44.46
15932;BME280;8065;49.520;11.284;2023-03-02T11:13:22;97564.81;;;17.44;43.92
15932;BME280;8065;49.520;11.284;2023-03-02T11:15:52;97557.72;;;18.08;43.03
15932;BME280;8065;49.520;11.284;2023-03-02T11:18:24;97557.72;;;17.55;43.02
15932;BME280;8065;49.520;11.284;2023-03-02T11:20:55;97560.78;;;18.06;42.98
15932;BME280;8065;49.520;11.284;2023-03-02T11:23:31;97558.94;;;17.61;43.06
15932;BME280;8065;49.520;11.284;2023-03-02T11:26:01;97560.38;;;17.28;43.63
15932;BME280;8065;49.520;11.284;2023-03-02T11:28:37;97553.47;;;17.54;43.48
15932;BME280;8065;49.520;11.284;2023-03-02T11:31:10;97556.16;;;17.27;44.08
15932;BME280;8065;49.520;11.284;2023-03-02T11:33:43;97545.19;;;18.22;43.20
15932;BME280;8065;49.520;11.284;2023-03-02T11:36:17;97554.19;;;17.51;42.95
15932;BME280;8065;49.520;11.284;2023-03-02T11:38:47;97546.91;;;17.25;44.16
15932;BME280;8065;49.520;11.284;2023-03-02T11:41:23;97551.22;;;17.82;43.84
15932;BME280;8065;49.520;11.284;2023-03-02T11:43:52;97545.09;;;18.45;43.55
15932;BME280;8065;49.520;11.284;2023-03-02T11:46:22;97542.06;;;18.84;43.02
15932;BME280;8065;49.520;11.284;2023-03-02T11:48:53;97531.09;;;17.99;42.65
15932;BME280;8065;49.520;11.284;2023-03-02T11:51:23;97528.19;;;18.11;43.58
15932;BME280;8065;49.520;11.284;2023-03-02T11:53:55;97538.31;;;18.25;43.24
15932;BME280;8065;49.520;11.284;2023-03-02T11:56:23;97533.59;;;17.85;43.27
15932;BME280;8065;49.520;11.284;2023-03-02T11:58:53;97540.06;;;17.80;43.62
15932;BME280;8065;49.520;11.284;2023-03-02T12:01:23;97530.75;;;18.67;42.23
15932;BME280;8065;49.520;11.284;2023-03-02T12:03:52;97524.19;;;19.09;41.82
15932;BME280;8065;49.520;11.284;2023-03-02T12:06:26;97524.03;;;18.88;41.60
15932;BME280;8065;49.520;11.284;2023-03-02T12:09:07;97524.22;;;18.35;42.92
15932;BME280;8065;49.520;11.284;2023-03-02T12:11:35;97518.75;;;18.61;42.67
15932;BME280;8065;49.520;11.284;2023-03-02T12:14:05;97522.66;;;18.00;42.61
15932;BME280;8065;49.520;11.284;2023-03-02T12:16:51;97520.97;;;16.48;44.45
15932;BME280;8065;49.520;11.284;2023-03-02T12:19:26;97507.53;;;16.87;45.28
15932;BME280;8065;49.520;11.284;2023-03-02T12:21:57;97515.03;;;16.78;44.79
15932;BME280;8065;49.520;11.284;2023-03-02T12:24:26;97507.47;;;17.06;45.07
15932;BME280;8065;49.520;11.284;2023-03-02T12:27:01;97511.34;;;17.35;45.01
15932;BME280;8065;49.520;11.284;2023-03-02T12:29:37;97510.03;;;17.22;44.62
15932;BME280;8065;49.520;11.284;2023-03-02T12:32:11;97511.00;;;17.89;44.18
15932;BME280;8065;49.520;11.284;2023-03-02T12:34:41;97515.34;;;17.71;43.54
15932;BME280;8065;49.520;11.284;2023-03-02T12:37:14;97504.63;;;18.38;42.98
15932;BME280;8065;49.520;11.284;2023-03-02T12:40:01;97498.44;;;18.34;42.89
15932;BME280;8065;49.520;11.284;2023-03-02T12:42:46;97502.06;;;18.12;42.90
15932;BME280;8065;49.520;11.284;2023-03-02T12:45:23;97499.81;;;17.61;43.42
15932;BME280;8065;49.520;11.284;2023-03-02T12:47:59;97494.69;;;17.22;44.69
15932;BME280;8065;49.520;11.284;2023-03-02T12:50:30;97494.56;;;17.42;44.37
15932;BME280;8065;49.520;11.284;2023-03-02T12:53:00;97501.25;;;17.02;45.01
15932;BME280;8065;49.520;11.284;2023-03-02T12:55:27;97491.25;;;17.52;44.63
15932;BME280;8065;49.520;11.284;2023-03-02T12:57:55;97480.25;;;17.87;43.43
15932;BME280;8065;49.520;11.284;2023-03-02T13:00:24;97483.09;;;17.71;43.86
15932;BME280;8065;49.520;11.284;2023-03-02T13:02:53;97484.84;;;17.07;45.31
15932;BME280;8065;49.520;11.284;2023-03-02T13:05:21;97483.00;;;17.11;45.32
15932;BME280;8065;49.520;11.284;2023-03-02T13:07:55;97472.22;;;17.64;44.04
15932;BME280;8065;49.520;11.284;2023-03-02T13:10:27;97468.66;;;18.13;44.08
15932;BME280;8065;49.520;11.284;2023-03-02T13:12:56;97474.47;;;18.22;43.70
15932;BME280;8065;49.520;11.284;2023-03-02T13:15:22;97458.59;;;18.47;43.99